Time;durP1;ratioP1;P1;durP2;ratioP2;P2;SDS_P1;SDS_P2;PMS_P1;PMS_P2;Temp;Humidity;BMP_temperature;BMP_pressure;BME280_temperature;BME280_humidity;BME280_pressure;Samples;Min_cycle;Max_cycle;Signal;HPM_P1;HPM_P2
2021/06/15 00:00:43;;;;;;;8.17;4.64;;;;;;;20.21;70.15;99175.67;393946;104;2072040;-72
2021/06/15 00:01:49;;;;;;;7.56;4.26;;;;;;;20.14;70.01;99181.47;380778;105;1960801;-72
2021/06/15 00:03:12;;;;;;;6.46;4.05;;;;;;;20.14;69.99;99175.17;374642;107;1962035;-72
2021/06/15 00:04:25;;;;;;;7.62;3.96;;;;;;;20.26;69.97;99180.32;354962;103;2798946;-74
2021/06/15 00:05:30;;;;;;;7.06;3.96;;;;;;;20.16;69.84;99182.02;357996;106;1961985;-73
2021/06/15 00:07:02;;;;;;;7.30;4.18;;;;;;;20.26;69.68;99175.65;410096;99;1986961;-73
2021/06/15 00:08:07;;;;;;;8.24;4.90;;;;;;;20.21;69.62;99183.90;391614;102;1961978;-74
2021/06/15 00:09:20;;;;;;;6.44;4.64;;;;;;;20.27;69.69;99180.05;393284;104;1986039;-73
2021/06/15 00:10:27;;;;;;;7.41;4.76;;;;;;;20.11;69.56;99182.05;368805;107;1964024;-72
2021/06/15 00:11:46;;;;;;;9.49;5.82;;;;;;;20.13;69.83;99181.74;402140;101;1986020;-72
2021/06/15 00:12:54;;;;;;;7.88;5.26;;;;;;;19.95;69.84;99180.44;378117;107;1961913;-73
2021/06/15 00:14:18;;;;;;;10.54;6.46;;;;;;;19.88;70.02;99178.00;331052;107;2807042;-72
2021/06/15 00:15:30;;;;;;;7.40;5.34;;;;;;;19.91;70.41;99176.63;390641;104;1973063;-72
2021/06/15 00:16:38;;;;;;;8.37;5.21;;;;;;;19.70;70.40;99167.64;359537;105;2834065;-72
2021/06/15 00:17:50;;;;;;;7.94;4.66;;;;;;;19.78;71.13;99185.44;396076;104;1986947;-72
2021/06/15 00:18:56;;;;;;;8.44;5.14;;;;;;;19.63;70.95;99186.25;376111;105;1961963;-72
2021/06/15 00:20:22;;;;;;;7.64;3.93;;;;;;;19.62;71.04;99181.88;304527;107;2419995;-73
2021/06/15 00:21:27;;;;;;;6.77;4.16;;;;;;;19.62;71.33;99185.44;373797;107;1961982;-74
2021/06/15 00:22:32;;;;;;;8.77;4.33;;;;;;;19.65;71.28;99184.87;367618;107;1962028;-75
2021/06/15 00:23:45;;;;;;;6.58;4.16;;;;;;;19.78;71.21;99183.52;396061;104;1985836;-72
2021/06/15 00:24:50;;;;;;;7.71;4.72;;;;;;;19.71;71.02;99177.49;372309;107;1961996;-74
2021/06/15 00:26:02;;;;;;;8.31;4.46;;;;;;;19.88;70.79;99182.67;379140;106;2895060;-74
2021/06/15 00:27:14;;;;;;;9.84;5.27;;;;;;;19.91;70.58;99179.37;391516;103;2072047;-73
2021/06/15 00:28:38;;;;;;;9.78;4.67;;;;;;;19.84;70.56;99187.88;379568;106;1961955;-74
2021/06/15 00:29:50;;;;;;;8.09;4.52;;;;;;;19.97;70.45;99181.80;385611;104;2072826;-73
2021/06/15 00:30:56;;;;;;;7.79;4.53;;;;;;;19.91;70.48;99177.44;352415;107;1991092;-73
2021/06/15 00:32:01;;;;;;;8.19;4.75;;;;;;;19.93;70.37;99183.47;343248;106;2108896;-73
2021/06/15 00:33:13;;;;;;;8.38;4.72;;;;;;;20.07;70.23;99174.65;404374;101;2072007;-72
2021/06/15 00:34:19;;;;;;;7.14;4.01;;;;;;;19.99;70.19;99176.86;388214;103;1962007;-74
2021/06/15 00:35:31;;;;;;;8.31;4.62;;;;;;;20.11;70.02;99172.97;404007;101;1986047;-72
2021/06/15 00:36:38;;;;;;;6.12;4.32;;;;;;;20.00;70.03;99174.94;384296;104;1961799;-73
2021/06/15 00:38:01;;;;;;;8.79;4.80;;;;;;;20.01;69.89;99165.63;382875;105;1961785;-73
2021/06/15 00:39:13;;;;;;;8.19;5.04;;;;;;;20.14;69.44;99167.77;394336;104;1986035;-73
2021/06/15 00:40:22;;;;;;;8.22;5.26;;;;;;;20.06;69.38;99170.25;339185;107;2636975;-73
2021/06/15 00:41:28;;;;;;;10.91;5.73;;;;;;;20.08;69.29;99168.05;374545;105;1962037;-74
2021/06/15 00:42:34;;;;;;;8.62;5.89;;;;;;;20.09;69.14;99172.45;369055;109;1962070;-74
2021/06/15 00:43:46;;;;;;;8.41;5.79;;;;;;;20.16;68.90;99172.95;383616;104;2887045;-73
2021/06/15 00:44:51;;;;;;;8.68;5.95;;;;;;;20.02;68.93;99171.92;368083;107;2945961;-73
2021/06/15 00:46:03;;;;;;;9.63;6.80;;;;;;;20.05;69.11;99165.88;383734;106;2071861;-73
2021/06/15 00:47:10;;;;;;;8.23;5.48;;;;;;;19.90;69.07;99164.00;368770;109;1960900;-72
2021/06/15 00:48:35;;;;;;;10.55;6.41;;;;;;;19.79;69.62;99163.22;367413;110;1960734;-74
2021/06/15 00:49:49;;;;;;;9.33;6.12;;;;;;;19.79;70.08;99168.70;359538;104;2885880;-74
2021/06/15 00:50:55;;;;;;;9.63;6.38;;;;;;;19.61;70.17;99161.89;375675;107;1961979;-74
2021/06/15 00:52:08;;;;;;;9.19;6.42;;;;;;;19.65;69.91;99162.14;383563;106;1986845;-72
2021/06/15 00:53:14;;;;;;;7.97;6.04;;;;;;;19.50;69.93;99165.72;358786;111;1961817;-74
2021/06/15 00:54:42;;;;;;;8.69;6.35;;;;;;;19.48;70.11;99176.16;359767;110;1964051;-73
2021/06/15 00:55:54;;;;;;;9.29;6.58;;;;;;;19.57;70.41;99174.48;393542;104;1985928;-74
2021/06/15 00:57:00;;;;;;;9.53;6.17;;;;;;;19.40;70.46;99169.33;363906;107;2873011;-72
2021/06/15 00:58:12;;;;;;;9.08;6.09;;;;;;;19.47;70.70;99169.84;391903;104;2071867;-73
2021/06/15 00:59:19;;;;;;;8.47;5.77;;;;;;;19.33;70.75;99166.04;376133;107;1963038;-75
2021/06/15 01:00:31;;;;;;;9.31;6.28;;;;;;;19.44;70.96;99169.58;394795;104;2070687;-75
2021/06/15 01:01:36;;;;;;;8.78;5.75;;;;;;;19.35;70.90;99163.03;380691;105;1961029;-73
2021/06/15 01:03:00;;;;;;;8.76;6.12;;;;;;;19.35;70.86;99163.84;378149;107;1962806;-74
2021/06/15 01:04:15;;;;;;;9.27;6.11;;;;;;;19.51;70.71;99167.38;378967;108;1985726;-76
2021/06/15 01:05:20;;;;;;;7.46;5.75;;;;;;;19.41;70.58;99162.73;344580;114;1962020;-74
2021/06/15 01:06:48;;;;;;;8.69;6.10;;;;;;;19.58;70.46;99167.08;393667;104;1986048;-74
2021/06/15 01:08:26;;;;;;;8.23;5.97;;;;;;;19.49;70.49;99172.31;355975;112;1962799;-74
2021/06/15 01:09:45;;;;;;;8.22;5.81;;;;;;;19.65;70.40;99165.70;392420;104;1985992;-73
2021/06/15 01:11:21;;;;;;;8.50;5.28;;;;;;;19.54;70.31;99164.09;376266;107;1961923;-73
2021/06/15 01:13:28;;;;;;;9.06;5.92;;;;;;;19.65;70.36;99170.36;402194;101;1986011;-73
2021/06/15 01:14:41;;;;;;;8.66;5.79;;;;;;;19.54;70.32;99167.64;312842;111;2875975;-73
2021/06/15 01:16:07;;;;;;;8.02;5.36;;;;;;;19.61;70.56;99170.11;397268;103;1985855;-75
2021/06/15 01:17:20;;;;;;;8.65;5.51;;;;;;;19.50;70.60;99172.05;370585;105;1961886;-71
2021/06/15 01:18:49;;;;;;;7.74;5.12;;;;;;;19.49;70.66;99172.31;359189;109;2962895;-74
2021/06/15 01:20:22;;;;;;;8.19;5.13;;;;;;;19.65;70.96;99165.70;353391;104;2773035;-74
2021/06/15 01:21:28;;;;;;;8.11;6.23;;;;;;;19.55;70.89;99166.56;360949;106;1962035;-73
2021/06/15 01:23:06;;;;;;;7.77;5.11;;;;;;;19.58;70.91;99172.56;361025;107;1962188;-73
2021/06/15 01:25:07;;;;;;;7.53;5.40;;;;;;;19.70;70.92;99159.42;381373;108;1985906;-72
2021/06/15 01:26:45;;;;;;;9.90;6.04;;;;;;;19.62;70.82;99165.45;363644;109;1962042;-73
2021/06/15 01:27:53;;;;;;;10.19;5.73;;;;;;;19.63;70.71;99161.59;348964;110;2951029;-74
2021/06/15 01:29:12;;;;;;;9.42;5.59;;;;;;;19.76;70.71;99161.85;387512;106;1985942;-74
2021/06/15 01:30:28;;;;;;;8.05;5.21;;;;;;;19.77;70.69;99159.95;385799;106;1986908;-74
2021/06/15 01:31:56;;;;;;;7.55;5.44;;;;;;;19.65;70.54;99160.22;354362;112;1961892;-73
2021/06/15 01:33:11;;;;;;;8.74;6.15;;;;;;;19.80;70.68;99164.06;387400;104;2836874;-73
2021/06/15 01:34:26;;;;;;;9.17;5.92;;;;;;;19.70;70.57;99160.23;373914;107;1962986;-73
2021/06/15 01:35:54;;;;;;;7.80;5.45;;;;;;;19.72;70.60;99157.23;309610;106;2406011;-73
2021/06/15 01:37:10;;;;;;;12.14;6.03;;;;;;;19.85;70.50;99164.05;366613;104;2035864;-73
2021/06/15 01:38:20;;;;;;;9.46;5.78;;;;;;;19.75;70.48;99162.16;327701;108;2874997;-73
2021/06/15 01:39:38;;;;;;;9.51;5.83;;;;;;;19.88;70.31;99161.56;376701;104;1987020;-73
2021/06/15 01:40:53;;;;;;;6.36;4.90;;;;;;;19.76;70.16;99159.11;374010;106;1961875;-73
2021/06/15 01:42:36;;;;;;;9.30;6.00;;;;;;;19.90;70.02;99159.36;402696;101;1985863;-74
2021/06/15 01:43:53;;;;;;;8.36;5.60;;;;;;;19.91;69.96;99158.25;329876;104;2448975;-73
2021/06/15 01:45:23;;;;;;;8.53;6.03;;;;;;;19.83;69.90;99156.09;374802;107;1970058;-73
2021/06/15 01:47:07;;;;;;;8.93;6.09;;;;;;;19.98;69.71;99156.05;364110;104;2024041;-72
2021/06/15 01:48:38;;;;;;;9.86;6.69;;;;;;;19.87;69.61;99159.93;368826;108;1962833;-73
2021/06/15 01:49:53;;;;;;;8.71;6.45;;;;;;;19.86;69.75;99163.75;353798;106;2876017;-73
2021/06/15 01:51:04;;;;;;;9.60;6.88;;;;;;;19.68;69.54;99162.43;358180;110;2942015;-72
2021/06/15 01:52:17;;;;;;;8.86;7.23;;;;;;;19.71;69.87;99167.38;405747;101;1985946;-73
2021/06/15 01:53:25;;;;;;;10.44;7.94;;;;;;;19.52;69.83;99175.31;384439;104;1961994;-73
2021/06/15 01:54:50;;;;;;;10.41;7.88;;;;;;;19.43;70.05;99166.02;382304;105;1962009;-73
2021/06/15 01:56:04;;;;;;;11.23;7.94;;;;;;;19.44;70.95;99167.66;385774;106;1961968;-73
2021/06/15 01:57:13;;;;;;;10.06;7.24;;;;;;;19.26;70.82;99168.23;367255;109;1969010;-72
2021/06/15 01:58:28;;;;;;;8.44;6.87;;;;;;;19.27;71.39;99169.89;394222;104;1985937;-73
2021/06/15 01:59:37;;;;;;;9.19;6.78;;;;;;;19.10;71.65;99168.26;376516;107;1962053;-71
2021/06/15 02:00:52;;;;;;;8.90;5.70;;;;;;;19.20;72.30;99163.86;355076;104;2701055;-74
2021/06/15 02:02:00;;;;;;;8.63;6.07;;;;;;;19.10;71.87;99168.26;373284;107;1961946;-74
2021/06/15 02:03:24;;;;;;;8.23;6.11;;;;;;;19.13;71.80;99166.05;374786;107;1963063;-72
2021/06/15 02:04:43;;;;;;;9.22;6.11;;;;;;;19.27;72.02;99175.36;341188;105;2863993;-74
2021/06/15 02:06:00;;;;;;;9.41;6.21;;;;;;;19.19;71.80;99171.26;370515;108;1962074;-73
2021/06/15 02:07:22;;;;;;;10.31;6.87;;;;;;;19.35;71.65;99172.06;349816;104;2778002;-73
2021/06/15 02:08:32;;;;;;;9.16;6.47;;;;;;;19.30;71.46;99172.07;309919;109;2328858;-72
2021/06/15 02:10:04;;;;;;;8.83;6.14;;;;;;;19.35;71.30;99173.98;371217;107;1960929;-73
2021/06/15 02:11:19;;;;;;;10.98;7.21;;;;;;;19.49;71.37;99175.87;396796;104;1984900;-73
2021/06/15 02:12:39;;;;;;;8.89;6.45;;;;;;;19.39;71.25;99166.84;376442;106;1960978;-73
2021/06/15 02:13:48;;;;;;;10.50;6.22;;;;;;;19.54;71.12;99167.64;392568;104;1984821;-73
2021/06/15 02:15:15;;;;;;;10.89;6.68;;;;;;;19.44;71.20;99167.66;376102;106;1961972;-73
2021/06/15 02:16:33;;;;;;;8.41;6.31;;;;;;;19.47;71.11;99169.84;314629;113;2808033;-73
2021/06/15 02:17:48;;;;;;;9.42;6.68;;;;;;;19.66;70.92;99163.77;389090;104;1986968;-74
2021/06/15 02:19:01;;;;;;;9.25;6.11;;;;;;;19.72;70.72;99168.20;394578;104;1986003;-73
2021/06/15 02:20:14;;;;;;;10.00;6.30;;;;;;;19.65;70.52;99168.44;373563;106;1961918;-74
2021/06/15 02:21:49;;;;;;;12.63;6.81;;;;;;;19.83;70.22;99169.80;403730;99;1985978;-73
2021/06/15 02:22:56;;;;;;;18.13;7.38;;;;;;;19.76;70.13;99163.78;389972;103;1962046;-73
2021/06/15 02:24:15;;;;;;;10.23;6.22;;;;;;;19.92;69.81;99168.11;396713;103;1986014;-72
2021/06/15 02:25:27;;;;;;;10.54;7.14;;;;;;;19.84;69.77;99174.16;379744;105;1961970;-72
2021/06/15 02:26:34;;;;;;;10.17;7.17;;;;;;;19.87;69.56;99168.16;373868;105;1962057;-72
2021/06/15 02:27:41;;;;;;;13.42;7.19;;;;;;;19.87;69.52;99176.38;378709;105;1961963;-72
2021/06/15 02:28:48;;;;;;;10.44;7.16;;;;;;;19.85;69.49;99178.56;323162;107;2196017;-74
2021/06/15 02:30:00;;;;;;;12.00;8.50;;;;;;;19.92;69.50;99176.33;391440;104;2072112;-72
2021/06/15 02:31:11;;;;;;;10.18;8.21;;;;;;;19.77;69.45;99173.66;374247;107;1960904;-73
2021/06/15 02:32:30;;;;;;;12.46;8.80;;;;;;;19.80;69.90;99175.02;342577;106;2754008;-73
2021/06/15 02:33:50;;;;;;;15.17;8.48;;;;;;;19.71;70.03;99172.86;389751;106;1986094;-73
2021/06/15 02:35:15;;;;;;;10.28;8.15;;;;;;;19.56;70.01;99181.08;368694;109;1960853;-73
2021/06/15 02:36:31;;;;;;;11.13;7.79;;;;;;;19.58;70.41;99178.86;396560;104;1986876;-74
2021/06/15 02:37:45;;;;;;;10.33;7.28;;;;;;;19.42;70.69;99177.25;374101;107;1962031;-74
2021/06/15 02:39:24;;;;;;;9.77;6.64;;;;;;;19.42;70.68;99178.06;372220;107;1961959;-75
2021/06/15 02:40:38;;;;;;;11.23;6.82;;;;;;;19.62;70.70;99176.41;387387;106;1987020;-73
2021/06/15 02:41:44;;;;;;;10.86;6.88;;;;;;;19.55;70.55;99188.48;370720;109;1962007;-73
2021/06/15 02:42:57;;;;;;;9.95;6.38;;;;;;;19.73;70.43;99175.30;387453;106;1986930;-73
2021/06/15 02:44:05;;;;;;;10.61;7.22;;;;;;;19.69;70.21;99176.98;370262;108;1962092;-73
2021/06/15 02:45:32;;;;;;;12.44;6.92;;;;;;;19.77;69.98;99181.88;367711;109;1961886;-72
2021/06/15 02:46:41;;;;;;;8.70;7.03;;;;;;;19.83;69.76;99185.42;370694;108;1963055;-74
2021/06/15 02:47:55;;;;;;;9.89;6.97;;;;;;;20.02;69.50;99182.89;393246;104;1986983;-74
2021/06/15 02:49:08;;;;;;;12.06;7.92;;;;;;;19.93;69.33;99186.21;374067;105;1961939;-73
2021/06/15 02:50:24;;;;;;;14.58;8.02;;;;;;;20.01;69.25;99184.00;361385;101;2744997;-74
2021/06/15 02:51:36;;;;;;;12.12;7.99;;;;;;;19.86;69.23;99185.68;380725;105;1961840;-73
2021/06/15 02:53:06;;;;;;;13.60;8.42;;;;;;;19.81;69.24;99182.14;376134;106;1961882;-73
2021/06/15 02:54:24;;;;;;;11.93;8.28;;;;;;;19.86;69.45;99188.42;392148;104;1986008;-74
2021/06/15 02:55:40;;;;;;;12.35;8.79;;;;;;;19.84;69.65;99189.80;352918;104;2704022;-73
2021/06/15 02:57:08;;;;;;;14.28;9.18;;;;;;;19.69;69.55;99187.94;372507;105;1961911;-74
2021/06/15 02:58:27;;;;;;;13.42;10.04;;;;;;;19.74;69.90;99187.89;383518;106;1985967;-73
2021/06/15 02:59:32;;;;;;;13.58;9.92;;;;;;;19.62;70.08;99187.36;359051;110;1963890;-74
2021/06/15 03:00:56;;;;;;;16.86;10.16;;;;;;;19.59;70.04;99190.66;358792;111;1962009;-73
2021/06/15 03:02:09;;;;;;;14.14;9.51;;;;;;;19.65;69.96;99179.40;386599;104;2074053;-73
2021/06/15 03:03:16;;;;;;;12.80;9.52;;;;;;;19.53;69.96;99184.38;370339;108;1961935;-74
2021/06/15 03:04:28;;;;;;;11.42;9.12;;;;;;;19.65;70.05;99187.62;393368;103;1985999;-73
2021/06/15 03:05:35;;;;;;;11.00;8.47;;;;;;;19.56;69.90;99183.81;375955;107;1962048;-74
2021/06/15 03:06:47;;;;;;;11.26;9.21;;;;;;;19.66;69.77;99185.69;392151;104;1964945;-74
2021/06/15 03:07:53;;;;;;;12.83;9.56;;;;;;;19.54;69.81;99183.27;373094;108;1961859;-72
2021/06/15 03:09:18;;;;;;;11.39;8.99;;;;;;;19.53;69.87;99185.19;367440;108;1961967;-73
2021/06/15 03:10:25;;;;;;;12.48;10.18;;;;;;;19.54;70.15;99191.48;372564;108;1962078;-72
2021/06/15 03:11:33;;;;;;;12.55;9.04;;;;;;;19.53;70.28;99187.93;371802;108;1963945;-73
2021/06/15 03:13:07;;;;;;;11.58;9.23;;;;;;;19.64;70.47;99180.51;391674;104;1986065;-73
2021/06/15 03:14:25;;;;;;;13.40;8.54;;;;;;;19.66;70.70;99182.95;354421;104;2167053;-73
2021/06/15 03:15:54;;;;;;;12.37;8.39;;;;;;;19.58;70.60;99184.34;356761;107;1962909;-72
2021/06/15 03:17:05;;;;;;;12.36;8.44;;;;;;;19.67;70.48;99187.38;374401;107;1960981;-72
2021/06/15 03:18:43;;;;;;;11.81;7.76;;;;;;;19.89;70.23;99189.78;402340;101;1986992;-72
2021/06/15 03:20:11;;;;;;;12.58;8.50;;;;;;;19.85;70.00;99181.31;382680;105;1961991;-73
2021/06/15 03:21:28;;;;;;;11.77;7.84;;;;;;;20.12;69.64;99188.34;396521;104;1985921;-72
2021/06/15 03:23:02;;;;;;;12.41;8.07;;;;;;;20.09;69.35;99186.16;376648;105;1962050;-73
2021/06/15 03:24:24;;;;;;;13.57;9.19;;;;;;;20.31;69.16;99194.83;394757;104;1986032;-74
2021/06/15 03:25:33;;;;;;;12.12;8.58;;;;;;;20.25;69.04;99195.14;374727;105;1961953;-75
2021/06/15 03:27:01;;;;;;;10.89;8.72;;;;;;;20.26;69.01;99188.55;368668;108;1961956;-73
2021/06/15 03:28:21;;;;;;;13.48;10.04;;;;;;;20.34;68.59;99197.00;350988;104;2742057;-74
2021/06/15 03:29:42;;;;;;;14.37;10.64;;;;;;;20.33;69.22;99191.81;393745;103;1985976;-73
2021/06/15 03:31:05;;;;;;;15.08;9.99;;;;;;;20.18;69.06;99195.44;356564;107;1962004;-73
2021/06/15 03:32:17;;;;;;;13.51;10.09;;;;;;;20.13;69.10;99193.52;369075;109;1961966;-73
2021/06/15 03:33:23;;;;;;;14.77;11.17;;;;;;;20.11;69.36;99192.16;363246;110;1961910;-73
2021/06/15 03:34:45;;;;;;;15.33;12.65;;;;;;;20.17;69.60;99194.63;354505;106;2518004;-73
2021/06/15 03:35:58;;;;;;;14.10;11.33;;;;;;;20.06;69.44;99194.92;295557;107;2351952;-72
2021/06/15 03:37:04;;;;;;;15.75;11.14;;;;;;;20.04;69.61;99191.67;366941;109;1962061;-72
2021/06/15 03:38:18;;;;;;;13.83;11.66;;;;;;;20.13;69.61;99187.23;352785;104;2739973;-74
2021/06/15 03:39:25;;;;;;;12.71;10.42;;;;;;;20.03;69.48;99195.48;381475;105;1970074;-71
2021/06/15 03:40:44;;;;;;;13.19;10.34;;;;;;;20.12;70.17;99188.34;357075;106;2496030;-74
2021/06/15 03:41:56;;;;;;;15.83;10.88;;;;;;;20.01;69.96;99197.72;366456;109;1969980;-73
2021/06/15 03:43:21;;;;;;;13.21;9.56;;;;;;;19.99;69.87;99201.53;364550;109;1961998;-73
2021/06/15 03:44:35;;;;;;;13.96;9.56;;;;;;;20.14;69.65;99199.86;365383;104;2498031;-73
2021/06/15 03:45:51;;;;;;;15.19;10.47;;;;;;;20.19;69.78;99194.33;398718;104;1987000;-73
2021/06/15 03:47:00;;;;;;;;;;;;;;;20.11;69.44;99198.50;347963;105;2554952;-72
2021/06/15 03:48:06;;;;;;;12.68;9.19;;;;;;;20.14;69.38;99197.11;375271;107;1960956;-73
2021/06/15 03:49:22;;;;;;;12.14;9.79;;;;;;;20.26;69.10;99199.52;362179;104;2887046;-74
2021/06/15 03:50:33;;;;;;;14.07;9.72;;;;;;;20.13;69.24;99196.27;347193;106;2489948;-73
2021/06/15 03:51:45;;;;;;;18.59;10.38;;;;;;;20.14;69.20;99199.86;364992;110;1961866;-72
2021/06/15 03:52:58;;;;;;;16.13;10.01;;;;;;;20.25;69.42;99201.45;406907;101;1985960;-73
2021/06/15 03:54:10;;;;;;;11.57;9.58;;;;;;;20.14;69.35;99199.86;386590;105;1960868;-73
2021/06/15 03:55:20;;;;;;;14.78;11.41;;;;;;;20.15;69.32;99206.97;340841;105;2459942;-74
2021/06/15 03:56:47;;;;;;;18.19;12.01;;;;;;;20.28;69.51;99211.04;381785;104;1986003;-73
2021/06/15 03:58:10;;;;;;;16.58;11.18;;;;;;;20.29;69.96;99204.44;390922;106;1962021;-72
2021/06/15 03:59:37;;;;;;;16.16;11.33;;;;;;;20.18;69.84;99203.66;365058;109;1969965;-73
2021/06/15 04:00:51;;;;;;;13.31;10.09;;;;;;;20.32;70.21;99207.45;393006;104;1985969;-72
2021/06/15 04:02:05;;;;;;;15.93;9.83;;;;;;;20.24;69.96;99201.72;364476;107;1962016;-73
2021/06/15 04:03:30;;;;;;;13.90;9.67;;;;;;;20.27;70.09;99207.48;367348;108;1961953;-73
2021/06/15 04:04:46;;;;;;;14.62;9.55;;;;;;;20.49;70.16;99200.78;354077;103;2706864;-73
2021/06/15 04:05:54;;;;;;;14.17;9.69;;;;;;;20.45;70.15;99197.77;375631;107;1961998;-74
2021/06/15 04:07:01;;;;;;;14.74;9.40;;;;;;;20.49;70.11;99204.34;350760;107;1962963;-75
2021/06/15 04:08:15;;;;;;;17.56;9.30;;;;;;;20.66;70.14;99201.25;385491;106;1972975;-74
2021/06/15 04:09:24;;;;;;;15.68;9.69;;;;;;;20.63;69.97;99205.38;312547;109;2284773;-73
2021/06/15 04:10:31;;;;;;;16.86;9.79;;;;;;;20.73;69.80;99204.52;365184;109;1962885;-74
2021/06/15 04:11:44;;;;;;;16.69;8.99;;;;;;;20.99;69.54;99213.39;395429;103;1959754;-73
2021/06/15 04:12:52;;;;;;;13.33;9.94;;;;;;;20.99;69.26;99215.33;372152;105;1960837;-75
2021/06/15 04:14:05;;;;;;;11.42;8.78;;;;;;;;;;395804;103;1984779;-75
2021/06/15 04:15:12;;;;;;;13.39;9.88;;;;;;;21.05;68.86;99216.92;366191;107;1960713;-76
2021/06/15 04:16:18;;;;;;;13.16;9.98;;;;;;;21.05;68.85;99211.43;303768;111;2204907;-74
2021/06/15 04:17:51;;;;;;;14.14;10.58;;;;;;;21.17;68.99;99209.15;390987;104;1984972;-73
2021/06/15 04:18:59;;;;;;;12.72;9.39;;;;;;;21.10;68.78;99207.83;363986;109;1960783;-74
2021/06/15 04:20:14;;;;;;;13.18;10.47;;;;;;;21.22;68.80;99206.36;398730;101;1984800;-72
2021/06/15 04:21:20;;;;;;;15.10;11.20;;;;;;;21.16;68.62;99212.17;352510;105;1960931;-71
2021/06/15 04:22:48;;;;;;;16.36;11.40;;;;;;;20.73;68.59;99146.06;353240;110;2947793;-72
2021/06/15 04:24:06;;;;;;;19.93;11.86;;;;;;;21.30;68.70;99216.73;376345;104;1985011;-71
2021/06/15 04:25:15;;;;;;;18.62;11.87;;;;;;;21.23;68.50;99212.67;377710;105;1960922;-72
2021/06/15 04:26:21;;;;;;;14.66;11.41;;;;;;;21.26;68.44;99209.34;357587;105;1960697;-72
2021/06/15 04:27:34;;;;;;;19.10;11.86;;;;;;;21.40;68.43;99209.52;390692;103;1984801;-72
2021/06/15 04:28:41;;;;;;;19.52;12.12;;;;;;;21.31;68.30;99209.30;362617;109;2845750;-72
2021/06/15 04:29:47;;;;;;;16.14;12.16;;;;;;;21.35;68.29;99212.28;355161;105;1960800;-72
2021/06/15 04:31:00;;;;;;;14.12;10.79;;;;;;;21.49;68.07;99211.37;394264;104;1960693;-72
2021/06/15 04:32:09;;;;;;;14.78;10.11;;;;;;;21.40;67.96;99215.02;366646;105;1968778;-72
2021/06/15 04:33:25;;;;;;;15.58;10.58;;;;;;;21.54;67.89;99215.16;388900;103;1984825;-71
2021/06/15 04:34:34;;;;;;;13.26;9.95;;;;;;;21.45;67.75;99214.98;379571;104;1960807;-72
2021/06/15 04:36:01;;;;;;;16.38;10.98;;;;;;;21.47;67.50;99216.33;337375;102;2487843;-71
2021/06/15 04:37:09;;;;;;;17.08;11.54;;;;;;;21.49;67.54;99216.05;376418;105;1960774;-72
2021/06/15 04:38:35;;;;;;;16.79;11.49;;;;;;;21.65;67.69;99213.98;379907;108;1984764;-72
2021/06/15 04:39:51;;;;;;;17.23;12.73;;;;;;;21.68;67.60;99213.39;400263;103;1984822;-73
2021/06/15 04:41:07;;;;;;;14.37;10.86;;;;;;;21.61;67.49;99216.47;380213;101;1960672;-72
2021/06/15 04:42:38;;;;;;;15.61;10.05;;;;;;;21.78;67.31;99215.20;351421;101;2732877;-72
2021/06/15 04:44:06;;;;;;;13.32;9.83;;;;;;;21.83;66.85;99218.73;389355;105;1984814;-72
2021/06/15 04:45:33;;;;;;;14.59;9.96;;;;;;;21.76;66.75;99212.75;366987;107;1960757;-72
2021/06/15 04:46:45;;;;;;;14.77;9.10;;;;;;;21.81;66.57;99215.45;365046;109;1960676;-72
2021/06/15 04:48:07;;;;;;;12.13;9.26;;;;;;;21.96;66.06;99219.95;388531;106;1985977;-72
2021/06/15 04:49:33;;;;;;;14.87;11.13;;;;;;;21.88;66.05;99218.66;364835;109;1961950;-72
2021/06/15 04:50:39;;;;;;;16.13;10.36;;;;;;;21.89;65.83;99216.75;364755;110;1961052;-72
2021/06/15 04:51:55;;;;;;;12.87;10.19;;;;;;;22.01;65.88;99228.14;373843;106;1993786;-72
2021/06/15 04:53:05;;;;;;;16.18;11.25;;;;;;;21.91;66.30;99223.59;364840;107;1960645;-72
2021/06/15 04:54:13;;;;;;;16.90;11.86;;;;;;;21.92;66.10;99225.23;360243;110;1960998;-71
2021/06/15 04:55:27;;;;;;;14.43;9.51;;;;;;;22.06;65.98;99219.02;408170;101;1985982;-72
2021/06/15 04:56:56;;;;;;;12.50;9.13;;;;;;;21.98;65.78;99223.23;387525;103;1962035;-73
2021/06/15 04:58:03;;;;;;;13.26;10.21;;;;;;;22.01;65.81;99224.58;382941;103;1962029;-73
2021/06/15 04:59:10;;;;;;;15.49;9.77;;;;;;;22.02;65.84;99218.80;334853;103;2813010;-72
2021/06/15 05:00:21;;;;;;;15.24;10.92;;;;;;;22.03;65.91;99223.17;382160;103;1962918;-72
2021/06/15 05:01:28;;;;;;;15.31;10.47;;;;;;;22.03;66.04;99219.61;382813;102;1961087;-76
2021/06/15 05:02:37;;;;;;;12.94;10.24;;;;;;;22.03;66.09;99214.11;353491;113;1961886;-76
2021/06/15 05:03:43;;;;;;;14.51;10.16;;;;;;;22.04;65.96;99216.55;356462;111;1962083;-76
2021/06/15 05:04:51;;;;;;;16.94;13.11;;;;;;;22.05;65.98;99211.90;356652;111;1963877;-75
2021/06/15 05:06:05;;;;;;;17.07;11.75;;;;;;;22.08;65.90;99219.55;323246;113;2024873;-75
2021/06/15 05:07:19;;;;;;;12.15;9.87;;;;;;;22.24;65.84;99220.23;381902;104;1986041;-72
2021/06/15 05:08:35;;;;;;;13.11;10.21;;;;;;;22.27;65.70;99219.63;358767;104;2070066;-72
2021/06/15 05:09:42;;;;;;;14.20;11.31;;;;;;;22.19;65.60;99218.34;366689;106;2876967;-72
2021/06/15 05:10:57;;;;;;;12.86;9.81;;;;;;;22.34;65.29;99218.16;387556;106;1985947;-73
2021/06/15 05:12:05;;;;;;;14.90;10.09;;;;;;;22.24;65.04;99223.79;325800;109;2713930;-72
2021/06/15 05:13:21;;;;;;;14.04;9.89;;;;;;;22.37;65.14;99216.76;352412;106;2589010;-72
2021/06/15 05:14:30;;;;;;;12.51;10.14;;;;;;;22.30;65.13;99221.79;366693;108;1962092;-73
2021/06/15 05:15:41;;;;;;;14.98;10.03;;;;;;;22.34;64.87;99222.86;364047;110;1963909;-73
2021/06/15 05:16:52;;;;;;;11.67;9.09;;;;;;;22.50;64.68;99224.29;384777;106;1989151;-71
2021/06/15 05:17:58;;;;;;;15.18;10.67;;;;;;;22.42;64.49;99219.45;362187;109;1961870;-72
2021/06/15 05:19:04;;;;;;;15.87;10.63;;;;;;;22.45;64.39;99224.36;361486;109;1962058;-71
2021/06/15 05:20:17;;;;;;;13.87;11.32;;;;;;;22.59;64.29;99222.50;382525;106;2072014;-72
2021/06/15 05:21:25;;;;;;;11.88;9.18;;;;;;;22.51;64.19;99223.16;363038;111;1962953;-72
2021/06/15 05:22:47;;;;;;;13.97;10.41;;;;;;;22.64;63.68;99220.80;398989;101;1985922;-73
2021/06/15 05:24:05;;;;;;;17.55;11.68;;;;;;;22.52;63.73;99223.98;376775;105;1961933;-72
2021/06/15 05:25:19;;;;;;;21.14;12.17;;;;;;;22.68;63.89;99222.67;393520;104;1985869;-72
2021/06/15 05:26:24;;;;;;;11.16;8.11;;;;;;;22.61;63.82;99219.47;377861;106;1961815;-73
2021/06/15 05:27:32;;;;;;;14.85;10.24;;;;;;;22.66;62.62;99218.58;368990;106;1961974;-72
2021/06/15 05:28:37;;;;;;;10.71;8.33;;;;;;;22.70;62.80;99220.42;310806;109;2238975;-73
2021/06/15 05:29:51;;;;;;;13.87;9.83;;;;;;;22.87;62.36;99213.60;385795;105;2072069;-72
2021/06/15 05:30:58;;;;;;;11.57;8.71;;;;;;;22.79;62.14;99217.84;303460;107;2417973;-72
2021/06/15 05:32:07;;;;;;;20.71;12.04;;;;;;;22.80;62.29;99214.77;324762;108;2113031;-74
2021/06/15 05:33:19;;;;;;;12.64;8.87;;;;;;;22.97;62.27;99221.72;350692;103;2803035;-72
2021/06/15 05:34:24;;;;;;;12.17;9.27;;;;;;;22.88;61.72;99218.80;351161;108;1962051;-73
2021/06/15 05:35:30;;;;;;;13.14;9.18;;;;;;;22.90;61.93;99222.08;367113;109;1964045;-73
2021/06/15 05:36:42;;;;;;;11.10;8.47;;;;;;;23.06;61.89;99227.39;396131;104;1987036;-73
2021/06/15 05:37:49;;;;;;;14.82;10.30;;;;;;;23.00;61.68;99219.20;369504;108;1962008;-72
2021/06/15 05:39:01;;;;;;;11.38;8.77;;;;;;;23.17;61.43;99229.67;357265;104;2090002;-72
2021/06/15 05:40:07;;;;;;;14.16;9.72;;;;;;;23.11;61.21;99222.61;343238;107;2015014;-72
2021/06/15 05:41:13;;;;;;;14.23;8.62;;;;;;;23.17;60.91;99226.10;374948;107;1961969;-73
2021/06/15 05:42:25;;;;;;;12.23;8.47;;;;;;;23.34;60.59;99231.90;393191;104;1985955;-72
2021/06/15 05:43:32;;;;;;;14.29;8.97;;;;;;;23.28;60.31;99224.00;362125;108;2866045;-72